• Join FlightAware (Why Join?)
  • Login
  • US Flag 
 
09:46AM EST


 

Airport Tracker/Info


-or-


 

Live Flight TrackerFlight Track Log ✈ FSR411 ✈ 27-Nov-2013 ✈ KCMI - KCLE

Flight Track Log - Related Links

Times and Time Zones

All times are in EST time to prevent confusion due to time zone crossing. See the FSR411 flight status page for this flight to view local times or setup timezone preferences in your user account.

Time Position Orientation Groundspeed Altitude Reporting Facility
EST Latitude Longitude Course Direction KTS MPH feet Rate Location/Type
01:58PM 40.0897 -88.2917 72° East 180 207 4,700  Level Chicago Center
01:59PM 40.1167 -88.2311 60° Northeast 213 245 8,200 2,880 Climbing Chicago Center
02:00PM 40.1519 -88.1444 62° Northeast 237 273 10,700 2,220 Climbing Chicago Center
02:01PM 40.1978 -88.0378 61° Northeast 314 361 12,900 2,760 Climbing Chicago Center
02:02PM 40.2486 -87.9219 60° Northeast 357 411 16,500 3,720 Climbing Chicago Center
02:03PM 40.2820 -87.2675 72° East  Level Estimated
02:03PM 40.3000 -87.8050 60° Northeast 369 425 20,600  Level Chicago Center
02:04PM 40.3522 -87.6853 60° Northeast 377 434 22,700 1,920 Climbing Chicago Center
02:05PM 40.4183 -87.5311 61° Northeast 402 463 24,700 1,080 Climbing Chicago Center
02:06PM 40.4736 -87.4019 61° Northeast 408 470 25,000 120 Climbing Chicago Center
02:07PM 40.5289 -87.2725 61° Northeast 407 468 25,000  Level Chicago Center
02:08PM 40.5842 -87.1433 61° Northeast 408 470 25,000  Level Chicago Center
02:09PM 40.6403 -87.0094 61° Northeast 408 470 25,000  Level Chicago Center
02:10PM 40.6944 -86.8786 61° Northeast 407 468 25,000  Level Chicago Center
02:11PM 40.7575 -86.7311 61° Northeast 408 470 25,000  Level Chicago Center
02:12PM 40.8103 -86.5981 62° Northeast 410 472 25,000  Level Chicago Center
02:13PM 40.8653 -86.4678 61° Northeast 408 470 25,000  Level Chicago Center
02:15PM 40.9842 -86.1786 61° Northeast 408 470 25,000  Level Chicago Center
02:16PM 41.0372 -86.0472 62° Northeast 407 468 25,000  Level Chicago Center
02:17PM 41.0903 -85.9153 62° Northeast 407 468 25,000  Level Chicago Center
02:18PM 41.1439 -85.7833 62° Northeast 408 470 25,000  Level Chicago Center
02:19PM 41.1981 -85.6497 62° Northeast 412 474 25,000  Level Chicago Center
02:20PM 41.2636 -85.4878 62° Northeast 418 481 25,000  Level Chicago Center
02:21PM 41.3186 -85.3503 62° Northeast 424 488 25,000  Level Chicago Center
02:22PM 41.3739 -85.2111 62° Northeast 429 494 25,000  Level Chicago Center
02:23PM 41.4292 -85.0722 62° Northeast 431 496 25,000  Level Chicago Center
02:25PM 41.4839 -84.9308 63° Northeast 433 498 25,000  Level Chicago Center
02:26PM 41.5508 -84.7603 62° Northeast 436 502 25,000  Level Chicago Center
02:27PM 41.6075 -84.6153 62° Northeast 440 506 25,000  Level Chicago Center
02:28PM 41.6625 -84.4725 63° Northeast 437 503 25,000  Level Chicago Center
02:29PM 41.7175 -84.3283 63° Northeast 437 503 25,000  Level Chicago Center
02:30PM 41.7739 -84.1844 62° Northeast 438 504 25,000  Level Chicago Center
02:31PM 41.8408 -84.0092 63° Northeast 443 510 25,000  Level Chicago Center
02:32PM 41.8958 -83.8625 63° Northeast 442 509 25,000  Level Chicago Center
02:33PM 41.9531 -83.7100 63° Northeast 446 513 25,000 -360 Level Chicago Center
02:34PM 42.0272 -83.5131 63° Northeast 440 506 24,200 -420 Descending Cleveland Center
02:35PM 42.0378 -83.3497 85° East 450 518 24,000 -780 Descending Cleveland Center
02:36PM 42.0200 -83.1792 98° East 445 512 22,700 -1,740 Descending Cleveland Center
02:37PM 42.0067 -83.0217 96° East 433 498 20,500 -2,280 Descending Cleveland Center
02:38PM 41.9911 -82.8686 98° East 418 481 18,100 -2,160 Descending Cleveland Center
02:39PM 41.9731 -82.6883 98° East 410 472 16,000 -1,800 Descending Cleveland Center
02:40PM 41.9578 -82.5444 98° East 396 456 14,400 -1,860 Descending Cleveland Center
02:41PM 41.9286 -82.4533 113° Southeast 370 426 12,900 -2,160 Descending Cleveland Center
02:41PM 41.9172 -82.4172 113° Southeast 378 435 12,200 -2,340 Descending Cleveland Center
02:42PM 41.9042 -82.3817 116° Southeast 344 396 11,500 -1,560 Descending Cleveland Center
02:42PM 41.8811 -82.3047 112° Southeast 340 391 10,600 -1,320 Descending Cleveland Center
02:43PM 41.8686 -82.2686 115° Southeast 317 365 10,200 -600 Descending Cleveland Center
02:43PM 41.8472 -82.1967 112° Southeast 321 369 10,000 -240 Descending Cleveland Center
02:44PM 41.8300 -82.1667 128° Southeast 312 359 10,000  Level Cleveland Center
02:45PM 41.7803 -82.1197 145° Southeast 305 351 10,000  Level Cleveland Center
02:45PM 41.7606 -82.1014 145° Southeast 304 350 10,000 -780 Level Cleveland Center
02:46PM 41.7108 -82.0547 145° Southeast 303 349 9,200 -1,260 Descending Cleveland Center
02:46PM 41.6967 -82.0431 148° Southeast 297 342 8,900 -1,680 Descending Cleveland Center
02:47PM 41.6297 -81.9831 146° Southeast 298 343 7,500 -1,380 Descending Cleveland Center
02:47PM 41.6289 -81.9814 124° Southeast 296 341 7,500 -480 Level Cleveland Center
02:48PM 41.5647 -81.9261 147° Southeast 259 298 7,000 -300 Descending Cleveland Center
02:49PM 41.5158 -81.8775 143° Southeast 224 258 7,000  Level Cleveland Center
02:49PM 41.5147 -81.8761 137° Southeast 200 230 7,000  Level Cleveland Center
02:50PM 41.5036 -81.7931 100° East 212 244 7,000  Level Cleveland Center
02:50PM 41.5025 -81.7992 256° West 217 250 7,000  Level Cleveland Center
02:51PM 41.5022 -81.7147 90° East 211 243 7,000  Level Cleveland Center
02:51PM 41.5019 -81.7206 266° West 211 243 7,000 -420 Level Cleveland Center
02:52PM 41.5008 -81.6392 91° East 206 237 6,600 -300 Descending Cleveland Center
02:52PM 41.5008 -81.6425 270° West 208 239 6,700 -1,320 Climbing Cleveland Center
02:53PM 41.4975 -81.5575 93° East 214 246 5,300 -1,260 Descending Cleveland Center
02:53PM 41.4981 -81.5619 279° West 213 245 5,400 -300 Climbing Cleveland Center
02:54PM 41.4744 -81.4897 114° Southeast 203 234 5,000 -420 Descending Cleveland Center
02:54PM 41.4747 -81.4922 278° West 209 241 5,000  Level Cleveland Center
02:55PM 41.4142 -81.4831 174° South 209 241 5,000  Level Cleveland Center
02:55PM 41.4158 -81.4831 360° North 212 244 5,000  Level Cleveland Center
02:56PM 41.3989 -81.5364 247° West 157 181 5,000  Level Cleveland Center
02:56PM 41.4003 -81.5453 282° West 167 192 5,000 -240 Level Cleveland Center
02:57PM 41.4061 -81.5961 279° West 162 186 4,800 -300 Descending Cleveland Center
02:57PM 41.4061 -81.6042 270° West 163 188 4,700 -780 Descending Cleveland Center
02:58PM 41.4092 -81.6619 274° West 158 182 3,900 -780 Descending Cleveland Center
02:59PM 41.4100 -81.7139 271° West 155 178 3,300 -720 Descending Cleveland Center
02:59PM 41.4097 -81.7164 262° West 148 170 3,200 -1,020 Descending Cleveland Center
03:00PM 41.4125 -81.7561 275° West 125 144 2,300 -1,020 Descending Cleveland Center
03:00PM 41.4117 -81.7589 248° West 126 145 2,200 -840 Descending Cleveland Center
03:01PM 41.4147 -81.8011 276° West 129 148 1,500 -900 Descending Cleveland Center
03:01PM 41.4142 -81.8094 265° West 119 137 1,300 -480 Descending Cleveland Center
03:02PM 41.4161 -81.8536 273° West 117 135 900 -420 Descending Cleveland Center